Flight Track Log - Related Links

Times and Time Zones

All times are in EDT time to prevent confusion due to time zone crossing. See the EGF4247 flight status page for this flight to view local times or setup timezone preferences in your user account.

Time Position Orientation Groundspeed Altitude Reporting Facility
EDT Latitude Longitude Course Direction KTS MPH feet Rate Location/Type
Thu 04:00:05 PM 42.9333 -78.7500 270° West 154 177 1,300  Level Buffalo TRACON
Thu 04:00:53 PM 42.9167 -78.7833 236° Southwest 190 219 2,900 1,889 Climbing Buffalo TRACON
Thu 04:01:53 PM 42.9500 -78.8667 299° West 253 291 4,700 1,882 Climbing Buffalo TRACON
Thu 04:02:00 PM 42.9500 -79.0562 270° West  Level FlightAware Approximate
Thu 04:02:35 PM 42.9667 -78.9000 304° West 250 288 6,100  Level Toronto Center
Thu 04:03:00 PM 42.9586 -79.1696 277° West  Level FlightAware Approximate
Thu 04:03:35 PM 42.9667 -79.0000 270° West 250 288 8,900  Level Toronto Center
Thu 04:04:00 PM 42.9667 -79.2830 270° West  Level FlightAware Approximate
Thu 04:04:35 PM 42.9667 -79.0833 270° West 250 288 10,800  Level Toronto Center
Thu 04:05:00 PM 42.9667 -79.3971 270° West  Level FlightAware Approximate
Thu 04:06:35 PM 42.9833 -79.2833 277° West 280 322 13,900  Level Toronto Center
Thu 04:07:35 PM 42.9833 -79.4000 270° West 300 345 15,400 1,500 Climbing Toronto Center
Thu 04:08:35 PM 42.9833 -79.5167 270° West 300 345 16,900 1,450 Climbing Toronto Center
Thu 04:09:35 PM 42.9833 -79.6333 270° West 310 357 18,300 1,400 Climbing Toronto Center
Thu 04:10:35 PM 42.9833 -79.7500 270° West 310 357 19,700 1,500 Climbing Toronto Center
Thu 04:11:35 PM 43.0000 -79.8833 280° West 310 357 21,300 1,700 Climbing Toronto Center
Thu 04:12:35 PM 43.0000 -80.0000 270° West 300 345 23,100 1,450 Climbing Toronto Center
Thu 04:13:35 PM 43.0000 -80.0833 270° West 300 345 24,200 1,100 Climbing Toronto Center
Thu 04:14:35 PM 43.0000 -80.2333 270° West 310 357 25,300 1,000 Climbing Toronto Center
Thu 04:15:35 PM 43.0167 -80.3333 283° West 320 368 26,200 950 Climbing Toronto Center
Thu 04:16:35 PM 43.0167 -80.4500 270° West 320 368 27,200 950 Climbing Toronto Center
Thu 04:17:35 PM 43.0167 -80.5833 270° West 330 380 28,100 850 Climbing Toronto Center
Thu 04:18:35 PM 43.0167 -80.7333 270° West 330 380 28,900 800 Climbing Toronto Center
Thu 04:19:35 PM 43.0167 -80.8500 270° West 340 391 29,700 550 Climbing Toronto Center
Thu 04:20:35 PM 43.0167 -80.9833 270° West 350 403 30,000 150 Climbing Toronto Center
Thu 04:21:35 PM 43.0167 -81.1167 270° West 360 414 30,000  Level Toronto Center
Thu 04:22:35 PM 43.0167 -81.2500 270° West 350 403 30,000  Level Toronto Center
Thu 04:23:35 PM 43.0333 -81.3833 280° West 350 403 30,000  Level Toronto Center
Thu 04:24:35 PM 43.1000 -81.4833 312° West 350 403 30,000  Level Toronto Center
Thu 04:25:35 PM 43.1667 -81.5833 312° West 360 414 30,000  Level Toronto Center
Thu 04:26:35 PM 43.2500 -81.7000 314° West 370 426 30,000  Level Toronto Center
Thu 04:27:35 PM 43.2833 -81.8167 291° West 370 426 30,000  Level Toronto Center
Thu 04:28:35 PM 43.2500 -81.9500 251° West 360 414 30,000  Level Toronto Center
Thu 04:29:35 PM 43.2333 -82.0833 260° West 360 414 30,000  Level Toronto Center
Thu 04:30:35 PM 43.2167 -82.2000 259° West 350 403 30,000  Level Toronto Center
Thu 04:31:35 PM 43.2000 -82.3333 260° West 350 403 30,000  Level Toronto Center
Thu 04:32:35 PM 43.1833 -82.4667 260° West 360 414 30,000  Level Toronto Center
Thu 04:33:35 PM 43.1667 -82.6000 260° West 360 414 30,000  Level Toronto Center
Thu 04:34:15 PM 43.1536 -82.6892 259° West 355 409 30,000 -300 Level Cleveland Center
Thu 04:35:15 PM 43.1303 -82.8219 257° West 355 409 29,500 -800 Descending Cleveland Center
Thu 04:36:15 PM 43.1069 -82.9519 256° West 355 409 28,400 -750 Descending Cleveland Center
Thu 04:37:15 PM 43.0833 -83.0875 257° West 355 409 28,000 -200 Descending Cleveland Center
Thu 04:38:15 PM 43.0617 -83.2117 257° West 355 409 28,000  Level Cleveland Center
Thu 04:39:15 PM 43.0378 -83.3414 256° West 355 409 28,000  Level Cleveland Center
Thu 04:40:15 PM 43.0158 -83.4711 257° West 355 409 28,000  Level Cleveland Center
Thu 04:41:15 PM 42.9892 -83.6175 256° West 360 414 28,000  Level Cleveland Center
Thu 04:42:15 PM 42.9644 -83.7608 257° West 373 429 28,000  Level Cleveland Center
Thu 04:43:15 PM 42.9503 -83.9022 262° West 378 435 28,000  Level Cleveland Center
Thu 04:44:15 PM 42.9356 -84.0489 262° West 384 442 28,000  Level Cleveland Center
Thu 04:45:15 PM 42.9228 -84.1928 263° West 389 448 28,000  Level Cleveland Center
Thu 04:46:14 PM 42.9106 -84.3083 262° West 389 448 28,000  Level Cleveland Center
Thu 04:47:34 PM 42.8906 -84.5175 263° West 381 438 28,000  Level Chicago Center
Thu 04:48:36 PM 42.8764 -84.6614 262° West 382 440 28,000  Level Chicago Center
Thu 04:49:38 PM 42.8617 -84.8044 262° West 381 438 28,000  Level Chicago Center
Thu 04:50:40 PM 42.8458 -84.9453 261° West 378 435 28,000  Level Chicago Center
Thu 04:51:43 PM 42.8311 -85.0872 262° West 378 435 28,000  Level Chicago Center
Thu 04:52:45 PM 42.8136 -85.2539 262° West 372 428 28,000  Level Chicago Center
Thu 04:53:47 PM 42.7978 -85.3964 261° West 378 435 28,000  Level Chicago Center
Thu 04:54:49 PM 42.7803 -85.5419 261° West 388 447 28,000 -581 Level Chicago Center
Thu 04:55:51 PM 42.7528 -85.6853 255° West 390 449 26,800 -1,500 Descending Chicago Center
Thu 04:56:53 PM 42.7278 -85.8269 257° West 385 443 24,900 -1,839 Descending Chicago Center
Thu 04:57:55 PM 42.7017 -85.9689 256° West 384 442 23,000 -1,742 Descending Chicago Center
Thu 04:58:57 PM 42.6764 -86.1094 256° West 382 440 21,300 -1,097 Descending Chicago Center
Thu 05:00:00 PM 42.6416 -86.2336 251° West  Level FlightAware Approximate
Thu 05:01:01 PM 42.6217 -86.4006 251° West 357 411 19,600  Level Chicago Center
Thu 05:02:03 PM 42.5964 -86.5308 255° West 356 410 18,100 -1,355 Descending Chicago Center
Thu 05:03:05 PM 42.5731 -86.6586 256° West 351 404 16,800 -1,403 Descending Chicago Center
Thu 05:04:07 PM 42.5469 -86.7867 255° West 353 406 15,200 -1,597 Descending Chicago Center
Thu 05:05:09 PM 42.5117 -86.9058 248° West 345 397 13,500 -1,680 Descending Chicago Center
Thu 05:06:12 PM 42.4731 -87.0472 250° West 336 387 11,700 -1,536 Descending Chicago Center
Thu 05:07:14 PM 42.4414 -87.1608 249° West 328 377 10,300 -968 Descending Chicago Center
Thu 05:08:16 PM 42.4169 -87.2553 251° West 272 313 9,700 -871 Descending Chicago Center
Thu 05:09:18 PM 42.3606 -87.3075 214° Southwest 262 302 8,500 -823 Descending Chicago Center
Thu 05:10:20 PM 42.2850 -87.2969 174° South 269 310 8,000 -435 Descending Chicago Center
Thu 05:11:22 PM 42.1939 -87.2831 174° South 273 314 7,600 -484 Descending Chicago Center
Thu 05:12:24 PM 42.1186 -87.2739 175° South 273 314 7,000 -290 Descending Chicago Center
Thu 05:13:26 PM 42.0597 -87.3208 211° Southwest 245 282 7,000 -194 Level Chicago Center
Thu 05:14:28 PM 42.0161 -87.3806 226° Southwest 228 262 6,600 -484 Descending Chicago Center
Thu 05:15:30 PM 41.9822 -87.4497 237° Southwest 224 258 6,000 -339 Descending Chicago Center
Thu 05:16:32 PM 41.9842 -87.5381 272° West 206 237 5,900 -532 Descending Chicago Center
Thu 05:17:34 PM 41.9836 -87.6133 269° West 205 236 4,900 -1,008 Descending Chicago Center
Thu 05:18:37 PM 41.9839 -87.6814 270° West 198 228 3,800 -1,048 Descending Chicago Center

Login

Don't have an account? Register now (free) for customized features, flight alerts, and more!